.
WxDataArchive / Data Records for 2016-01-24
2016-01-23 January 2016 2016-01-25

Data Records for Sunday, 24 January 2016

Time	Temp	Chill	HIndex	Humid	Dewpt	 Wind 	HiWind	WindDir	Rain 	Barom
-----	----	-----	------	-----	-----	------	------	-------	-----	-----
00:00	18.6	18.6	18.6	85	14.9	0	0	---	0.00	30.103 
00:05	18.6	18.6	18.6	86	15.1	0	0	---	0.00	30.103 
00:10	18.4	18.4	18.4	86	14.9	0	0	---	0.00	30.103 
00:15	18.3	18.3	18.3	86	14.8	0	0	---	0.00	30.099 
00:20	18.1	18.1	18.1	86	14.6	0	0	---	0.00	30.099 
00:25	18.0	18.0	18.0	86	14.5	0	0	---	0.00	30.099 
00:30	18.0	18.0	18.0	86	14.5	0	0	---	0.00	30.100 
00:35	17.8	17.8	17.8	86	14.3	0	0	---	0.00	30.100 
00:40	17.8	17.8	17.8	86	14.3	0	0	---	0.00	30.100 
00:45	17.8	17.8	17.8	87	14.6	0	0	---	0.00	30.102 
00:50	17.7	17.7	17.7	86	14.2	0	0	---	0.00	30.102 
00:55	17.5	17.5	17.5	86	14.0	0	0	---	0.00	30.102 
01:00	17.3	17.3	17.3	86	13.8	0	0	---	0.00	30.096 
01:05	17.3	17.3	17.3	87	14.1	0	0	---	0.00	30.096 
01:10	17.3	17.3	17.3	87	14.1	0	0	---	0.00	30.096 
01:15	17.5	17.5	17.5	87	14.3	0	0	---	0.00	30.099 
01:20	17.5	17.5	17.5	87	14.3	0	0	---	0.00	30.099 
01:25	17.5	17.5	17.5	87	14.3	0	0	---	0.00	30.099 
01:30	17.5	17.5	17.5	87	14.3	0	0	---	0.00	30.096 
01:35	17.5	17.5	17.5	87	14.3	0	0	---	0.00	30.096 
01:40	17.3	17.3	17.3	87	14.1	0	0	---	0.00	30.096 
01:45	17.3	17.3	17.3	87	14.1	0	0	---	0.00	30.096 
01:50	17.2	17.2	17.2	87	14.0	0	0	---	0.00	30.096 
01:55	17.0	17.0	17.0	87	13.8	0	0	---	0.00	30.096 
02:00	16.9	16.9	16.9	87	13.7	0	0	---	0.00	30.095 
02:05	16.7	16.7	16.7	87	13.5	0	0	---	0.00	30.095 
02:10	16.5	16.5	16.5	87	13.3	0	0	---	0.00	30.095 
02:15	16.5	16.5	16.5	87	13.3	0	0	---	0.00	30.097 
02:20	16.5	16.5	16.5	87	13.3	0	0	---	0.00	30.097 
02:25	16.4	16.4	16.4	88	13.5	0	0	---	0.00	30.097 
02:30	16.4	16.4	16.4	88	13.5	0	0	---	0.00	30.092 
02:35	16.4	16.4	16.4	88	13.5	0	0	---	0.00	30.092 
02:40	16.5	16.5	16.5	88	13.6	0	0	---	0.00	30.092 
02:45	16.9	16.9	16.9	88	14.0	0	0	---	0.00	30.094 
02:50	17.0	17.0	17.0	88	14.1	0	0	---	0.00	30.094 
02:55	17.3	17.3	17.3	88	14.4	0	0	---	0.00	30.094 
03:00	17.3	17.3	17.3	88	14.4	0	0	---	0.00	30.096 
03:05	17.3	17.3	17.3	88	14.4	0	0	---	0.00	30.096 
03:10	17.2	17.2	17.2	88	14.3	0	0	---	0.00	30.096 
03:15	17.2	17.2	17.2	88	14.3	0	0	---	0.00	30.091 
03:20	17.0	17.0	17.0	88	14.1	0	0	---	0.00	30.091 
03:25	17.0	17.0	17.0	88	14.1	0	0	---	0.00	30.091 
03:30	17.2	17.2	17.2	88	14.3	0	0	---	0.00	30.087 
03:35	17.3	17.3	17.3	88	14.4	0	0	---	0.00	30.087 
03:40	17.3	17.3	17.3	88	14.4	0	0	---	0.00	30.087 
03:45	17.3	17.3	17.3	88	14.4	0	0	---	0.00	30.083 
03:50	17.3	17.3	17.3	88	14.4	0	0	---	0.00	30.083 
03:55	17.3	17.3	17.3	88	14.4	0	0	---	0.00	30.083 
04:00	17.3	17.3	17.3	88	14.4	0	0	---	0.00	30.081 
04:05	17.5	17.5	17.5	89	14.8	0	0	---	0.00	30.081 
04:10	17.8	17.8	17.8	89	15.1	0	0	---	0.00	30.081 
04:15	18.0	18.0	18.0	89	15.3	0	0	---	0.00	30.082 
04:20	18.1	18.1	18.1	89	15.4	0	0	---	0.00	30.082 
04:25	18.3	18.3	18.3	89	15.6	0	0	---	0.00	30.082 
04:30	18.4	18.4	18.4	89	15.7	0	0	---	0.00	30.081 
04:35	18.6	18.6	18.6	89	15.9	0	0	---	0.00	30.081 
04:40	18.9	18.9	18.9	89	16.2	0	1	315	0.00	30.081 
04:45	19.1	19.1	19.1	89	16.4	0	0	---	0.00	30.079 
04:50	19.2	19.2	19.2	89	16.5	0	0	---	0.00	30.079 
04:55	19.4	19.4	19.4	89	16.7	0	0	---	0.00	30.079 
05:00	19.4	19.4	19.4	89	16.7	0	0	---	0.00	30.079 
05:05	19.5	19.5	19.5	89	16.8	0	0	---	0.00	30.079 
05:10	19.7	19.7	19.7	89	17.0	0	0	---	0.00	30.079 
05:15	19.9	19.9	19.9	89	17.2	0	1	315	0.00	30.084 
05:20	19.9	19.9	19.9	89	17.2	0	1	315	0.00	30.084 
05:25	20.0	20.0	20.0	89	17.3	0	0	---	0.00	30.084 
05:30	20.0	20.0	20.0	88	17.0	0	1	315	0.00	30.083 
05:35	20.0	20.0	20.0	88	17.0	0	1	315	0.00	30.083 
05:40	20.2	20.2	20.2	88	17.2	0	1	315	0.00	30.083 
05:45	20.0	20.0	20.0	88	17.0	0	0	---	0.00	30.080 
05:50	20.0	20.0	20.0	88	17.0	0	0	---	0.00	30.080 
05:55	19.9	19.9	19.9	88	16.9	0	1	315	0.00	30.080 
06:00	19.9	19.9	19.9	88	16.9	0	1	315	0.00	30.085 
06:05	19.7	19.7	19.7	88	16.7	0	1	315	0.00	30.085 
06:10	19.7	19.7	19.7	88	16.7	0	0	---	0.00	30.085 
06:15	19.7	19.7	19.7	88	16.7	0	0	---	0.00	30.088 
06:20	19.5	19.5	19.5	88	16.5	0	0	---	0.00	30.088 
06:25	19.5	19.5	19.5	88	16.5	0	0	---	0.00	30.088 
06:30	19.4	19.4	19.4	88	16.4	0	0	---	0.00	30.086 
06:35	19.5	19.5	19.5	88	16.5	0	0	---	0.00	30.086 
06:40	19.5	19.5	19.5	88	16.5	0	1	315	0.00	30.086 
06:45	19.5	19.5	19.5	88	16.5	0	1	315	0.00	30.085 
06:50	19.7	19.7	19.7	88	16.7	0	1	315	0.00	30.085 
06:55	19.7	19.7	19.7	88	16.7	0	0	---	0.00	30.085 
07:00	19.7	19.7	19.7	88	16.7	0	0	---	0.00	30.086 
07:05	19.5	19.5	19.5	88	16.5	0	0	---	0.00	30.086 
07:10	19.5	19.5	19.5	88	16.5	0	0	---	0.00	30.086 
07:15	19.5	19.5	19.5	88	16.5	0	1	315	0.00	30.088 
07:20	19.7	19.7	19.7	88	16.7	0	0	---	0.00	30.088 
07:25	19.7	19.7	19.7	88	16.7	0	1	315	0.00	30.088 
07:30	19.9	19.9	19.9	88	16.9	0	1	315	0.00	30.083 
07:35	20.0	20.0	20.0	88	17.0	0	1	315	0.00	30.083 
07:40	20.2	20.2	20.2	88	17.2	0	1	315	0.00	30.083 
07:45	20.2	20.2	20.2	88	17.2	0	0	---	0.00	30.083 
07:50	20.2	20.2	20.2	88	17.2	0	1	315	0.00	30.083 
07:55	20.2	20.2	20.2	88	17.2	0	1	315	0.00	30.083 
08:00	20.2	20.2	20.2	88	17.2	0	0	---	0.00	30.091 
08:05	20.0	20.0	20.0	88	17.0	0	1	315	0.00	30.091 
08:10	20.0	20.0	20.0	88	17.0	0	1	315	0.00	30.091 
08:15	20.0	20.0	20.0	88	17.0	0	1	315	0.00	30.092 
08:20	19.9	19.9	19.9	88	16.9	0	0	---	0.00	30.092 
08:25	19.9	19.9	19.9	88	16.9	0	1	315	0.00	30.092 
08:30	19.9	19.9	19.9	88	16.9	0	1	315	0.00	30.086 
08:35	20.0	20.0	20.0	88	17.0	0	2	292	0.00	30.086 
08:40	20.2	20.2	20.2	88	17.2	0	1	315	0.00	30.086 
08:45	20.3	20.3	20.3	88	17.3	0	1	292	0.00	30.091 
08:50	20.6	20.6	20.6	87	17.4	0	1	292	0.00	30.091 
08:55	20.8	20.8	20.8	87	17.6	0	1	315	0.00	30.091 
09:00	21.1	21.1	21.1	87	17.8	0	2	292	0.00	30.090 
09:05	21.3	21.3	21.3	86	17.8	0	2	292	0.00	30.090 
09:10	21.4	21.4	21.4	86	17.9	0	3	292	0.00	30.090 
09:15	21.8	21.8	21.8	86	18.3	0	3	292	0.00	30.092 
09:20	22.1	22.1	22.1	86	18.6	1	2	292	0.00	30.092 
09:25	22.4	22.4	22.4	85	18.6	0	2	292	0.00	30.092 
09:30	22.7	22.7	22.7	85	18.9	1	2	292	0.00	30.093 
09:35	23.0	23.0	23.0	84	18.9	0	3	292	0.00	30.093 
09:40	23.3	23.3	23.3	84	19.2	1	4	292	0.00	30.093 
09:45	23.6	23.6	23.6	83	19.2	1	3	270	0.00	30.097 
09:50	23.8	23.8	23.8	82	19.1	1	3	270	0.00	30.097 
09:55	24.1	24.1	24.1	82	19.4	0	2	270	0.00	30.097 
10:00	24.4	24.4	24.4	81	19.4	0	3	270	0.00	30.096 
10:05	24.5	24.5	24.5	81	19.5	0	2	270	0.00	30.096 
10:10	24.8	24.8	24.8	80	19.5	0	2	270	0.00	30.096 
10:15	25.0	25.0	25.0	79	19.4	1	3	270	0.00	30.092 
10:20	25.1	25.1	25.1	78	19.2	0	3	270	0.00	30.092 
10:25	25.4	25.4	25.4	78	19.5	1	5	270	0.00	30.092 
10:30	25.8	25.8	25.8	77	19.6	1	3	248	0.00	30.087 
10:35	26.1	26.1	26.1	76	19.6	1	3	248	0.00	30.087 
10:40	26.4	26.4	26.4	75	19.6	1	3	292	0.00	30.087 
10:45	26.6	26.6	26.6	74	19.5	1	4	292	0.00	30.083 
10:50	26.7	26.7	26.7	73	19.2	1	4	292	0.00	30.083 
10:55	27.0	27.0	27.0	73	19.5	1	4	270	0.00	30.083 
11:00	27.3	27.3	27.3	72	19.5	1	4	270	0.00	30.083 
11:05	27.6	27.6	27.6	71	19.4	1	6	248	0.00	30.083 
11:10	27.8	27.8	27.8	69	19.0	1	6	248	0.00	30.083 
11:15	28.1	28.1	28.1	69	19.3	1	3	248	0.00	30.081 
11:20	28.4	28.4	28.4	68	19.2	2	5	248	0.00	30.081 
11:25	28.5	28.5	28.5	68	19.3	1	4	248	0.00	30.081 
11:30	29.0	29.0	29.0	67	19.4	1	4	248	0.00	30.073 
11:35	29.1	29.1	29.1	67	19.5	1	4	248	0.00	30.073 
11:40	29.4	29.4	29.4	66	19.5	1	5	248	0.00	30.073 
11:45	29.8	29.8	29.8	67	20.2	0	2	248	0.00	30.069 
11:50	30.0	30.0	30.0	65	19.7	2	7	225	0.00	30.069 
11:55	30.3	30.3	30.3	65	20.0	1	5	248	0.00	30.069 
12:00	30.3	30.3	30.3	64	19.6	2	6	248	0.00	30.062 
12:05	30.6	30.6	30.6	64	19.9	1	5	248	0.00	30.062 
12:10	30.9	30.9	30.9	64	20.2	1	5	248	0.00	30.062 
12:15	31.0	31.0	31.0	63	19.9	2	5	248	0.00	30.054 
12:20	31.3	31.3	31.3	63	20.2	1	5	248	0.00	30.054 
12:25	31.6	31.6	31.6	63	20.5	1	6	270	0.00	30.054 
12:30	31.8	31.8	31.8	62	20.3	2	5	270	0.00	30.046 
12:35	31.8	31.8	31.8	62	20.3	2	6	248	0.00	30.046 
12:40	31.8	31.8	31.8	62	20.3	2	5	248	0.00	30.046 
12:45	32.1	32.1	32.1	63	20.9	1	2	248	0.00	30.039 
12:50	32.5	32.5	32.5	62	20.9	1	6	270	0.00	30.039 
12:55	32.7	32.7	32.7	62	21.1	1	5	248	0.00	30.039 
13:00	32.7	32.7	32.7	62	21.1	1	4	248	0.00	30.034 
13:05	32.9	32.9	32.9	62	21.3	1	4	248	0.00	30.034 
13:10	33.1	33.1	33.1	62	21.5	1	4	248	0.00	30.034 
13:15	33.4	33.4	33.4	62	21.8	0	3	270	0.00	30.025 
13:20	33.5	33.5	33.5	62	21.9	1	3	292	0.00	30.025 
13:25	33.7	33.7	33.7	61	21.7	1	5	270	0.00	30.025 
13:30	33.7	33.7	33.7	61	21.7	1	3	248	0.00	30.020 
13:35	34.0	34.0	34.0	61	22.0	1	4	270	0.00	30.020 
13:40	34.0	34.0	34.0	60	21.6	1	5	270	0.00	30.020 
13:45	34.3	34.3	34.3	61	22.3	1	4	90	0.00	30.010 
13:50	34.6	34.6	34.6	60	22.2	1	6	90	0.00	30.010 
13:55	34.7	34.7	34.7	60	22.3	0	2	248	0.00	30.010 
14:00	35.0	35.0	35.0	60	22.5	1	4	248	0.00	30.003 
14:05	35.0	35.0	35.0	60	22.5	1	5	248	0.00	30.003 
14:10	34.9	34.9	34.9	60	22.4	1	5	270	0.00	30.003 
14:15	35.0	35.0	35.0	60	22.5	1	4	248	0.00	30.003 
14:20	35.0	35.0	35.0	60	22.5	1	3	248	0.00	30.003 
14:25	35.3	35.3	35.3	60	22.8	0	2	248	0.00	30.003 
14:30	35.5	35.5	35.5	59	22.6	1	4	248	0.00	30.004 
14:35	35.3	35.3	35.3	59	22.4	1	4	248	0.00	30.004 
14:40	35.3	35.3	35.3	59	22.4	1	4	225	0.00	30.004 
14:45	35.5	35.5	35.5	60	23.0	0	2	248	0.00	30.004 
14:50	35.8	35.8	35.8	59	22.9	1	5	248	0.00	30.004 
14:55	35.6	35.6	35.6	59	22.7	1	3	270	0.00	30.004 
15:00	35.5	35.5	35.5	59	22.6	1	4	248	0.00	30.002 
15:05	35.5	35.5	35.5	60	23.0	1	5	248	0.00	30.002 
15:10	35.5	35.5	35.5	60	23.0	1	4	248	0.00	30.002 
15:15	35.5	35.5	35.5	60	23.0	1	3	248	0.00	30.002 
15:20	35.6	35.6	35.6	60	23.1	1	3	248	0.00	30.002 
15:25	35.6	35.6	35.6	61	23.5	0	2	248	0.00	30.002 
15:30	35.6	35.6	35.6	61	23.5	0	2	248	0.00	30.000 
15:35	35.6	35.6	35.6	61	23.5	0	3	248	0.00	30.000 
15:40	35.8	35.8	35.8	60	23.3	1	4	248	0.00	30.000 
15:45	35.8	35.8	35.8	60	23.3	1	3	248	0.00	29.994 
15:50	35.9	35.9	35.9	61	23.8	0	2	270	0.00	29.994 
15:55	35.8	35.8	35.8	61	23.7	1	6	270	0.00	29.994 
16:00	35.5	35.5	35.5	61	23.4	1	3	90	0.00	29.996 
16:05	35.2	35.2	35.2	62	23.5	1	3	68	0.00	29.996 
16:10	34.9	34.9	34.9	62	23.2	1	4	248	0.00	29.996 
16:15	34.7	34.7	34.7	62	23.0	1	6	248	0.00	29.995 
16:20	34.4	34.4	34.4	63	23.1	1	4	270	0.00	29.995 
16:25	34.4	34.4	34.4	63	23.1	1	4	248	0.00	29.995 
16:30	34.3	34.3	34.3	63	23.0	1	3	248	0.00	30.002 
16:35	34.3	34.3	34.3	63	23.0	1	3	248	0.00	30.002 
16:40	34.3	34.3	34.3	63	23.0	1	3	248	0.00	30.002 
16:45	34.3	34.3	34.3	64	23.4	0	2	248	0.00	30.003 
16:50	34.0	34.0	34.0	65	23.5	0	3	248	0.00	30.003 
16:55	33.8	33.8	33.8	65	23.3	0	2	248	0.00	30.003 
17:00	33.5	33.5	33.5	66	23.4	1	4	45	0.00	30.001 
17:05	33.2	33.2	33.2	67	23.4	0	2	45	0.00	30.001 
17:10	32.9	32.9	32.9	67	23.2	0	2	45	0.00	30.001 
17:15	32.8	32.8	32.8	67	23.1	0	1	315	0.00	29.998 
17:20	32.7	32.7	32.7	68	23.3	0	3	270	0.00	29.998 
17:25	32.5	32.5	32.5	68	23.1	0	2	270	0.00	29.998 
17:30	32.4	32.4	32.4	68	23.0	0	2	270	0.00	30.001 
17:35	32.2	32.2	32.2	68	22.8	0	1	270	0.00	30.001 
17:40	32.1	32.1	32.1	69	23.1	0	1	270	0.00	30.001 
17:45	31.9	31.9	31.9	69	22.9	0	1	270	0.00	30.002 
17:50	31.8	31.8	31.8	70	23.2	0	1	270	0.00	30.002 
17:55	31.6	31.6	31.6	70	23.0	0	1	270	0.00	30.002 
18:00	31.5	31.5	31.5	71	23.2	0	1	270	0.00	30.002 
18:05	31.5	31.5	31.5	71	23.2	0	1	270	0.00	30.002 
18:10	31.3	31.3	31.3	71	23.0	0	1	270	0.00	30.002 
18:15	31.3	31.3	31.3	72	23.3	0	1	270	0.00	30.006 
18:20	31.2	31.2	31.2	72	23.2	0	1	270	0.00	30.006 
18:25	31.2	31.2	31.2	72	23.2	0	1	270	0.00	30.006 
18:30	31.2	31.2	31.2	72	23.2	0	1	270	0.00	30.007 
18:35	31.0	31.0	31.0	72	23.1	0	0	---	0.00	30.007 
18:40	31.0	31.0	31.0	73	23.4	0	1	270	0.00	30.007 
18:45	31.2	31.2	31.2	72	23.2	0	2	270	0.00	30.008 
18:50	31.0	31.0	31.0	72	23.1	0	1	270	0.00	30.008 
18:55	31.0	31.0	31.0	72	23.1	0	1	270	0.00	30.008 
19:00	30.9	30.9	30.9	73	23.3	0	0	---	0.00	30.008 
19:05	30.9	30.9	30.9	73	23.3	0	1	270	0.00	30.008 
19:10	30.7	30.7	30.7	73	23.1	0	1	270	0.00	30.008 
19:15	30.6	30.6	30.6	73	23.0	0	1	270	0.00	30.008 
19:20	30.4	30.4	30.4	73	22.8	0	1	270	0.00	30.008 
19:25	30.4	30.4	30.4	74	23.1	0	1	270	0.00	30.008 
19:30	30.4	30.4	30.4	74	23.1	0	2	270	0.00	30.011 
19:35	30.4	30.4	30.4	75	23.4	0	2	292	0.00	30.011 
19:40	30.4	30.4	30.4	75	23.4	0	0	---	0.00	30.011 
19:45	30.3	30.3	30.3	75	23.3	0	2	292	0.00	30.012 
19:50	30.3	30.3	30.3	76	23.7	0	2	292	0.00	30.012 
19:55	30.3	30.3	30.3	76	23.7	0	1	292	0.00	30.012 
20:00	30.4	30.4	30.4	76	23.8	0	1	292	0.00	30.011 
20:05	30.3	30.3	30.3	76	23.7	0	1	292	0.00	30.011 
20:10	30.3	30.3	30.3	76	23.7	0	1	292	0.00	30.011 
20:15	30.3	30.3	30.3	77	24.0	0	1	292	0.00	30.009 
20:20	30.3	30.3	30.3	77	24.0	0	1	292	0.00	30.009 
20:25	30.3	30.3	30.3	77	24.0	0	0	---	0.00	30.009 
20:30	30.3	30.3	30.3	77	24.0	0	0	---	0.00	30.006 
20:35	30.1	30.1	30.1	77	23.8	0	1	292	0.00	30.006 
20:40	30.1	30.1	30.1	77	23.8	0	1	292	0.00	30.006 
20:45	30.1	30.1	30.1	77	23.8	0	0	---	0.00	30.005 
20:50	30.0	30.0	30.0	77	23.7	0	1	292	0.00	30.005 
20:55	30.0	30.0	30.0	77	23.7	0	0	---	0.00	30.005 
21:00	29.8	29.8	29.8	77	23.5	0	1	292	0.00	30.006 
21:05	29.8	29.8	29.8	77	23.5	0	1	292	0.00	30.006 
21:10	29.8	29.8	29.8	77	23.5	0	0	---	0.00	30.006 
21:15	29.7	29.7	29.7	77	23.4	0	0	---	0.00	30.003 
21:20	29.7	29.7	29.7	77	23.4	0	0	---	0.00	30.003 
21:25	29.7	29.7	29.7	78	23.7	0	0	---	0.00	30.003 
21:30	29.7	29.7	29.7	78	23.7	0	1	292	0.00	30.005 
21:35	29.7	29.7	29.7	78	23.7	0	0	---	0.00	30.005 
21:40	29.7	29.7	29.7	78	23.7	0	1	292	0.00	30.005 
21:45	29.8	29.8	29.8	78	23.8	0	1	292	0.00	30.001 
21:50	29.8	29.8	29.8	78	23.8	0	1	292	0.00	30.001 
21:55	29.8	29.8	29.8	77	23.5	0	0	---	0.00	30.001 
22:00	29.8	29.8	29.8	77	23.5	0	1	292	0.00	30.001 
22:05	29.7	29.7	29.7	77	23.4	0	0	---	0.00	30.001 
22:10	29.5	29.5	29.5	77	23.2	0	1	292	0.00	30.001 
22:15	29.5	29.5	29.5	77	23.2	0	1	292	0.00	30.001 
22:20	29.5	29.5	29.5	77	23.2	0	1	292	0.00	30.001 
22:25	29.5	29.5	29.5	77	23.2	0	1	292	0.00	30.001 
22:30	29.5	29.5	29.5	77	23.2	0	1	292	0.00	29.999 
22:35	29.5	29.5	29.5	77	23.2	0	0	---	0.00	29.999 
22:40	29.5	29.5	29.5	77	23.2	0	1	292	0.00	29.999 
22:45	29.5	29.5	29.5	77	23.2	0	1	292	0.00	30.000 
22:50	29.5	29.5	29.5	77	23.2	0	0	---	0.00	30.000 
22:55	29.5	29.5	29.5	77	23.2	0	0	---	0.00	30.000 
23:00	29.4	29.4	29.4	77	23.1	0	1	292	0.00	29.998 
23:05	29.3	29.3	29.3	77	23.0	0	0	---	0.00	29.998 
23:10	29.1	29.1	29.1	77	22.8	0	0	---	0.00	29.998 
23:15	29.1	29.1	29.1	77	22.8	0	0	---	0.00	30.000 
23:20	29.1	29.1	29.1	77	22.8	0	0	---	0.00	30.000 
23:25	29.1	29.1	29.1	77	22.8	0	0	---	0.00	30.000 
23:30	29.0	29.0	29.0	77	22.7	0	1	292	0.00	30.003 
23:35	29.0	29.0	29.0	77	22.7	0	0	---	0.00	30.003 
23:40	29.0	29.0	29.0	77	22.7	0	0	---	0.00	30.003 
23:45	28.8	28.8	28.8	77	22.5	0	0	---	0.00	30.005 
23:50	28.8	28.8	28.8	78	22.8	0	0	---	0.00	30.005 
23:55	29.0	29.0	29.0	77	22.7	0	1	292	0.00	30.005 

CoCoRaHS
IN-AL-39
A2 Web Hosting
Creative Commons License
GoDaddy
search engine by freefind advanced

loaded 2018-11-13 23:48:06 • last modified 2010-11-18 10:43:29
Privacy PolicyDisclaimer
• wx.awcolley.com is powered by PmWiki v.2002016 •
• all content (unless otherwise noted) © 2018 A W Colley